Time;durP1;ratioP1;P1;durP2;ratioP2;P2;SDS_P1;SDS_P2;PMS_P1;PMS_P2;Temp;Humidity;BMP_temperature;BMP_pressure;BME280_temperature;BME280_humidity;BME280_pressure;Samples;Min_cycle;Max_cycle;Signal;HPM_P1;HPM_P2
2023/10/08 00:00:53;;;;;;;;;32.50;30.25;;;;;14.59;100.00;102450.56;5008472;28;45330;-75
2023/10/08 00:03:20;;;;;;;;;41.75;35.00;;;;;14.60;100.00;102460.25;5010506;28;45514;-75
2023/10/08 00:05:46;;;;;;;;;34.50;32.00;;;;;14.58;100.00;102457.69;5030893;28;47394;-75
2023/10/08 00:08:12;;;;;;;;;40.50;33.50;;;;;14.58;100.00;102465.66;5011893;28;45368;-76
2023/10/08 00:10:42;;;;;;;;;40.50;32.75;;;;;14.74;100.00;102483.72;5002368;28;45422;-75
2023/10/08 00:13:12;;;;;;;;;38.25;32.75;;;;;14.70;100.00;102484.75;5011495;28;45461;-75
2023/10/08 00:15:51;;;;;;;;;35.25;33.00;;;;;14.68;100.00;102487.50;5008670;28;47372;-75
2023/10/08 00:18:18;;;;;;;;;40.00;31.00;;;;;14.70;100.00;102493.63;5010438;28;45471;-75
2023/10/08 00:20:54;;;;;;;;;27.50;24.75;;;;;14.69;100.00;102491.03;5008492;28;45439;-75
2023/10/08 00:23:26;;;;;;;;;36.50;31.50;;;;;14.66;100.00;102501.78;5018952;28;45595;-76
2023/10/08 00:25:54;;;;;;;;;39.00;34.00;;;;;14.65;100.00;102506.25;5012823;28;45415;-75
2023/10/08 00:28:21;;;;;;;;;42.75;35.25;;;;;14.65;100.00;102518.69;5009663;28;45640;-76
2023/10/08 00:30:47;;;;;;;;;33.75;30.00;;;;;14.58;100.00;102505.59;5021180;28;45324;-76
2023/10/08 00:33:14;;;;;;;;;38.25;33.25;;;;;14.58;100.00;102500.28;5007008;28;45446;-76
2023/10/08 00:35:41;;;;;;;;;39.00;32.75;;;;;14.54;100.00;102485.34;5004922;28;46317;-75
2023/10/08 00:38:14;;;;;;;;;39.25;32.75;;;;;14.55;100.00;102495.06;5012024;28;45405;-75
2023/10/08 00:40:45;;;;;;;;;43.50;35.25;;;;;14.52;100.00;102486.31;5006754;28;45290;-76
2023/10/08 00:43:28;;;;;;;;;41.25;36.00;;;;;14.55;100.00;102500.38;5012501;28;45533;-76
2023/10/08 00:45:54;;;;;;;;;40.50;32.50;;;;;14.42;100.00;102476.94;5014239;28;45373;-75
2023/10/08 00:48:22;;;;;;;;;41.25;33.00;;;;;14.50;100.00;102491.69;5004399;28;45258;-76
2023/10/08 00:50:47;;;;;;;;;41.75;34.50;;;;;14.32;100.00;102473.69;5011006;28;45350;-76
2023/10/08 00:53:23;;;;;;;;;45.25;35.00;;;;;14.53;100.00;102501.34;5006544;28;45336;-75
2023/10/08 00:56:04;;;;;;;;;43.25;36.25;;;;;14.52;100.00;102508.50;5004702;28;46931;-76
2023/10/08 00:58:33;;;;;;;;;45.25;37.00;;;;;14.44;100.00;102489.25;5013848;28;45399;-75
2023/10/08 01:00:59;;;;;;;;;46.50;37.75;;;;;14.37;100.00;102473.53;5010954;28;45514;-76
2023/10/08 01:03:27;;;;;;;;;43.25;36.50;;;;;14.46;100.00;102492.72;5008952;28;45454;-76
2023/10/08 01:05:54;;;;;;;;;44.00;36.50;;;;;14.37;100.00;102476.22;5012659;28;47246;-74
2023/10/08 01:08:36;;;;;;;;;36.75;33.75;;;;;14.46;100.00;102498.03;5008688;28;46444;-75
2023/10/08 01:11:31;;;;;;;;;46.00;36.75;;;;;14.40;100.00;102487.63;5007487;28;45511;-75
2023/10/08 01:13:58;;;;;;;;;38.00;33.25;;;;;14.24;100.00;102457.13;5010944;28;45389;-76
2023/10/08 01:16:27;;;;;;;;;40.00;34.75;;;;;14.22;100.00;102461.66;5013716;28;46260;-76
2023/10/08 01:18:54;;;;;;;;;41.00;35.50;;;;;14.40;100.00;102489.41;5016437;28;45407;-76
2023/10/08 01:21:33;;;;;;;;;38.25;33.00;;;;;14.25;100.00;102464.19;5004929;28;45556;-75
2023/10/08 01:24:01;;;;;;;;;44.25;38.25;;;;;14.18;100.00;102456.47;5007591;28;46236;-75
2023/10/08 01:26:29;;;;;;;;;37.75;34.00;;;;;14.27;100.00;102466.78;5011221;28;48140;-76
2023/10/08 01:28:54;;;;;;;;;43.50;36.00;;;;;14.34;100.00;102468.34;5006887;28;45315;-75
2023/10/08 01:31:20;;;;;;;;;45.50;37.50;;;;;14.16;100.00;102453.00;5012398;28;45345;-75
2023/10/08 01:33:50;;;;;;;;;47.00;38.00;;;;;14.06;100.00;102450.69;5016859;28;45497;-75
2023/10/08 01:36:15;;;;;;;;;48.25;36.00;;;;;14.07;100.00;102435.56;5010020;28;45507;-76
2023/10/08 01:38:48;;;;;;;;;38.00;33.50;;;;;14.08;100.00;102447.94;5010923;28;45427;-76
2023/10/08 01:41:30;;;;;;;;;45.75;35.75;;;;;14.22;100.00;102466.97;5010376;28;45372;-75
2023/10/08 01:43:59;;;;;;;;;45.50;37.25;;;;;13.95;100.00;102423.59;5001126;28;45255;-75
2023/10/08 01:46:28;;;;;;;;;42.50;36.25;;;;;14.09;100.00;102447.91;4998367;28;45949;-76
2023/10/08 01:49:00;;;;;;;;;44.00;34.50;;;;;14.07;100.00;102440.88;5002509;28;45464;-75
2023/10/08 01:51:35;;;;;;;;;42.00;36.00;;;;;14.19;100.00;102463.53;5027033;28;45470;-75
2023/10/08 01:54:02;;;;;;;;;39.00;33.00;;;;;14.17;100.00;102460.94;5003732;28;45742;-75
2023/10/08 01:56:28;;;;;;;;;41.00;35.25;;;;;14.18;100.00;102468.00;5007305;28;46181;-75
2023/10/08 01:58:53;;;;;;;;;37.25;33.00;;;;;14.02;100.00;102434.88;5017928;28;45285;-75
2023/10/08 02:01:23;;;;;;;;;43.75;36.25;;;;;13.89;100.00;102430.91;5010492;28;45396;-75
2023/10/08 02:03:49;;;;;;;;;39.50;33.75;;;;;13.91;100.00;102437.91;5007447;28;45470;-74
2023/10/08 02:06:15;;;;;;;;;42.00;35.50;;;;;13.89;100.00;102415.81;5004918;28;45416;-75
2023/10/08 02:08:43;;;;;;;;;38.75;32.50;;;;;14.05;100.00;102438.28;5006380;28;45581;-75
2023/10/08 02:11:10;;;;;;;;;34.50;30.50;;;;;13.93;100.00;102420.13;5007712;28;45451;-74
2023/10/08 02:13:36;;;;;;;;;31.75;26.75;;;;;14.01;100.00;102423.34;5010192;28;45242;-74
2023/10/08 02:16:02;;;;;;;;;31.33;30.00;;;;;14.07;100.00;102436.44;5006741;28;47503;-74
2023/10/08 02:18:32;;;;;;;;;33.00;30.00;;;;;14.10;100.00;102452.28;5002519;28;45489;-74
2023/10/08 02:20:59;;;;;;;;;36.50;31.25;;;;;14.10;100.00;102432.81;5011386;28;45549;-75
2023/10/08 02:23:24;;;;;;;;;34.25;29.00;;;;;13.93;100.00;102413.94;5013356;28;45559;-75
2023/10/08 02:25:50;;;;;;;;;34.50;31.50;;;;;13.91;100.00;102399.78;5007313;28;45568;-74
2023/10/08 02:28:20;;;;;;;;;32.50;27.25;;;;;13.89;100.00;102404.31;5001800;28;45199;-74
2023/10/08 02:30:46;;;;;;;;;26.75;26.50;;;;;14.00;100.00;102429.59;5002776;28;45408;-74
2023/10/08 02:33:15;;;;;;;;;31.00;30.00;;;;;13.98;100.00;102417.28;5016634;28;45352;-75
2023/10/08 02:35:45;;;;;;;;;32.50;27.25;;;;;14.01;100.00;102431.34;5007216;28;46333;-75
2023/10/08 02:38:17;;;;;;;;;31.00;28.75;;;;;14.02;100.00;102434.88;5007113;28;45337;-75
2023/10/08 02:40:47;;;;;;;;;30.50;26.25;;;;;13.89;100.00;102420.25;5018185;28;45283;-75
2023/10/08 02:43:15;;;;;;;;;29.50;26.00;;;;;13.98;100.00;102439.44;5011949;28;45443;-75
2023/10/08 02:45:42;;;;;;;;;31.25;29.75;;;;;13.96;100.00;102435.97;5015804;28;46068;-75
2023/10/08 02:48:12;;;;;;;;;28.25;28.25;;;;;13.68;100.00;102399.75;5004294;28;46339;-75
2023/10/08 02:50:40;;;;;;;;;32.00;28.75;;;;;13.93;100.00;102437.88;5008256;28;45516;-75
2023/10/08 02:53:10;;;;;;;;;35.00;28.75;;;;;13.83;100.00;102426.69;5016462;28;45511;-75
2023/10/08 02:55:35;;;;;;;;;27.25;27.00;;;;;13.83;100.00;102418.69;5014188;28;45514;-76
2023/10/08 02:58:04;;;;;;;;;30.25;27.50;;;;;13.82;100.00;102411.63;5006239;28;45458;-76
2023/10/08 03:00:30;;;;;;;;;29.75;28.75;;;;;13.89;100.00;102422.94;5017390;28;45393;-75
2023/10/08 03:03:01;;;;;;;;;25.50;24.75;;;;;13.83;100.00;102423.16;5014058;28;45655;-75
2023/10/08 03:05:35;;;;;;;;;31.50;27.25;;;;;13.82;100.00;102424.06;5014814;28;46373;-75
2023/10/08 03:08:01;;;;;;;;;33.00;29.00;;;;;13.71;100.00;102413.78;5004518;28;45448;-75
2023/10/08 03:10:33;;;;;;;;;26.00;23.67;;;;;13.75;100.00;102419.88;5011219;28;45471;-76
2023/10/08 03:13:06;;;;;;;;;29.75;23.75;;;;;13.79;100.00;102417.06;5004024;28;45321;-75
2023/10/08 03:15:46;;;;;;;;;27.50;23.25;;;;;13.23;100.00;102336.59;5015653;28;45649;-75
2023/10/08 03:18:15;;;;;;;;;25.00;24.00;;;;;13.61;100.00;102420.38;5000747;28;46173;-75
2023/10/08 03:20:46;;;;;;;;;25.00;25.00;;;;;13.68;100.00;102427.19;5003870;28;45535;-75
2023/10/08 03:23:33;;;;;;;;;26.25;22.25;;;;;13.62;100.00;102411.44;4998586;28;45629;-75
2023/10/08 03:26:09;;;;;;;;;23.25;21.50;;;;;13.75;100.00;102438.47;5011098;28;45322;-75
2023/10/08 03:28:35;;;;;;;;;27.00;24.75;;;;;13.66;100.00;102423.72;5012098;28;45400;-75
2023/10/08 03:31:04;;;;;;;;;19.50;18.75;;;;;13.62;100.00;102432.72;5012588;28;45462;-75
2023/10/08 03:33:39;;;;;;;;;28.25;25.00;;;;;13.62;100.00;102424.75;5014537;28;45463;-74
2023/10/08 03:36:27;;;;;;;;;21.33;19.67;;;;;13.36;100.00;102384.88;5010891;28;45460;-75
2023/10/08 03:38:52;;;;;;;;;23.00;22.67;;;;;13.49;100.00;102407.47;4999890;28;45562;-75
2023/10/08 03:41:27;;;;;;;;;21.00;20.67;;;;;13.65;100.00;102459.19;4999915;28;45445;-75
2023/10/08 03:43:53;;;;;;;;;22.50;21.75;;;;;13.49;100.00;102428.72;5014932;28;45450;-75
2023/10/08 03:46:23;;;;;;;;;22.25;20.75;;;;;13.35;100.00;102402.59;5019326;28;45353;-74
2023/10/08 03:48:52;;;;;;;;;25.33;22.00;;;;;13.46;100.00;102419.06;5002755;28;45464;-74
2023/10/08 03:51:22;;;;;;;;;21.67;21.00;;;;;13.59;100.00;102451.44;5028690;28;45430;-75
2023/10/08 03:53:58;;;;;;;;;22.50;20.00;;;;;13.44;100.00;102436.88;5005520;28;45526;-75
2023/10/08 03:56:25;;;;;;;;;23.00;20.67;;;;;13.33;100.00;102423.06;5019661;28;46443;-75
2023/10/08 03:58:54;;;;;;;;;22.50;20.50;;;;;13.42;100.00;102448.44;5017883;28;45847;-75
2023/10/08 04:01:22;;;;;;;;;22.25;21.25;;;;;13.46;100.00;102452.75;5020245;28;45371;-75
2023/10/08 04:06:16;;;;;;;;;20.00;18.33;;;;;13.23;100.00;102408.34;5004208;28;45512;-75
2023/10/08 04:08:54;;;;;;;;;20.67;20.33;;;;;13.31;100.00;102413.41;5000644;28;45398;-75
2023/10/08 04:13:55;;;;;;;;;18.33;17.00;;;;;13.35;100.00;102437.16;5008695;28;45342;-75
2023/10/08 04:16:20;;;;;;;;;23.67;22.67;;;;;13.36;100.00;102440.69;5004344;28;48249;-75
2023/10/08 04:18:50;;;;;;;;;25.67;24.00;;;;;13.44;100.00;102451.94;4999214;28;45293;-75
2023/10/08 04:21:20;;;;;;;;;24.33;24.00;;;;;13.34;100.00;102431.91;5012293;28;45462;-75
2023/10/08 04:23:46;;;;;;;;;17.67;15.00;;;;;13.37;100.00;102439.78;5000992;28;45377;-76
2023/10/08 04:26:12;;;;;;;;;23.33;22.00;;;;;13.39;100.00;102443.25;5005407;28;46342;-75
2023/10/08 04:28:37;;;;;;;;;23.00;20.67;;;;;13.25;100.00;102426.91;5001663;28;45261;-75
2023/10/08 04:31:14;;;;;;;;;22.33;20.00;;;;;13.17;100.00;102423.59;5011944;28;45906;-75
2023/10/08 04:33:41;;;;;;;;;24.67;22.67;;;;;13.14;100.00;102419.25;5008152;28;45300;-75
2023/10/08 04:36:07;;;;;;;;;20.33;18.33;;;;;13.32;100.00;102441.69;5010911;28;46213;-75
2023/10/08 04:38:40;;;;;;;;;26.00;24.00;;;;;13.32;100.00;102447.00;5001880;28;45408;-75
2023/10/08 04:41:09;;;;;;;;;25.00;20.00;;;;;13.17;100.00;102423.59;5016813;28;45413;-75
2023/10/08 04:43:37;;;;;;;;;22.00;20.67;;;;;13.12;100.00;102423.75;5016868;28;45470;-75
2023/10/08 04:46:19;;;;;;;;;24.33;21.33;;;;;13.29;100.00;102458.63;5019847;28;46070;-75
2023/10/08 04:48:51;;;;;;;;;17.67;15.00;;;;;13.28;100.00;102446.28;5010947;28;45547;-76
2023/10/08 04:51:17;;;;;;;;;22.00;21.00;;;;;13.28;100.00;102445.41;5017855;28;45700;-75
2023/10/08 04:53:45;;;;;;;;;21.33;20.33;;;;;13.26;100.00;102452.53;5000300;28;45366;-76
2023/10/08 04:56:16;;;;;;;;;22.00;19.00;;;;;13.07;100.00;102423.88;5011035;28;48098;-75
2023/10/08 04:58:48;;;;;;;;;23.33;19.67;;;;;13.19;100.00;102435.03;5005750;28;45576;-76
2023/10/08 05:01:17;;;;;;;;;24.25;22.25;;;;;13.23;100.00;102444.66;5015772;28;45393;-75
2023/10/08 05:12:10;;;;;;;;;25.50;19.75;;;;;12.95;100.00;102432.22;5009834;28;45222;-75
2023/10/08 05:14:45;;;;;;;;;24.50;23.25;;;;;12.86;100.00;102403.28;5000669;28;45518;-75
2023/10/08 05:17:21;;;;;;;;;28.33;26.67;;;;;12.98;100.00;102431.25;5011209;28;46777;-76
2023/10/08 05:19:50;;;;;;;;;26.50;24.50;;;;;13.09;100.00;102453.06;5017482;28;45614;-75
2023/10/08 05:22:21;;;;;;;;;28.25;25.75;;;;;13.12;100.00;102460.09;5012188;28;45396;-75
2023/10/08 05:33:25;;;;;;;;;26.75;23.75;;;;;13.03;100.00;102458.53;4988428;28;45557;-75
2023/10/08 05:36:02;;;;;;;;;26.00;22.50;;;;;13.03;100.00;102445.25;4995670;28;45271;-75
2023/10/08 05:49:15;;;;;;;;;27.00;21.25;;;;;13.02;100.00;102462.97;5016330;28;46360;-76
2023/10/08 05:57:35;;;;;;;;;26.00;23.67;;;;;12.94;100.00;102453.50;5011825;28;45348;-75
2023/10/08 06:13:16;;;;;;;;;25.00;23.33;;;;;12.96;100.00;102462.28;5013738;28;45316;-76
2023/10/08 06:18:50;;;;;;;;;27.50;26.50;;;;;12.87;100.00;102478.50;5016430;28;45530;-76
2023/10/08 06:21:18;;;;;;;;;26.00;24.00;;;;;12.90;100.00;102491.69;5008633;28;48303;-75
2023/10/08 06:23:47;;;;;;;;;29.00;25.00;;;;;12.70;100.00;102452.44;5022552;28;45355;-75
2023/10/08 06:28:39;;;;;;;;;30.25;25.50;;;;;13.00;100.00;102509.09;5014289;28;45524;-76
2023/10/08 06:31:11;;;;;;;;;28.00;23.50;;;;;12.94;100.00;102477.41;5004525;28;46495;-76
2023/10/08 06:33:40;;;;;;;;;25.00;23.33;;;;;12.91;100.00;102464.22;5021269;28;45475;-76
2023/10/08 06:38:37;;;;;;;;;26.50;26.25;;;;;13.07;100.00;102502.69;5017159;28;45416;-76
2023/10/08 06:43:38;;;;;;;;;23.25;22.25;;;;;12.57;100.00;102389.16;5008985;28;45450;-76
2023/10/08 06:46:07;;;;;;;;;28.50;27.00;;;;;12.89;100.00;102434.22;5007122;28;45499;-76
2023/10/08 06:48:36;;;;;;;;;28.75;26.75;;;;;12.52;100.00;102399.94;5014234;28;46646;-76
2023/10/08 06:51:12;;;;;;;;;24.00;22.75;;;;;13.05;100.00;102476.16;5014329;28;46991;-76
2023/10/08 06:53:46;;;;;;;;;24.75;23.75;;;;;12.73;100.00;102415.19;5025584;28;45380;-76
2023/10/08 06:56:43;;;;;;;;;28.25;25.75;;;;;12.59;100.00;102372.28;5007345;28;45227;-75
2023/10/08 06:59:09;;;;;;;;;25.33;22.67;;;;;13.27;100.00;102505.63;5014234;28;45553;-76
2023/10/08 07:01:43;;;;;;;;;26.75;24.75;;;;;13.22;100.00;102494.25;5009658;28;46037;-76
2023/10/08 07:04:13;;;;;;;;;24.50;24.50;;;;;12.96;100.00;102420.66;5012760;28;45312;-76
2023/10/08 07:06:50;;;;;;;;;25.50;23.00;;;;;13.07;100.00;102433.63;5022725;28;45578;-75
2023/10/08 07:09:22;;;;;;;;;24.75;24.50;;;;;13.37;100.00;102487.63;5005969;28;45382;-76
2023/10/08 07:11:56;;;;;;;;;30.00;26.25;;;;;13.52;100.00;102524.31;5004155;28;48711;-76
2023/10/08 07:14:26;;;;;;;;;27.67;26.33;;;;;13.08;100.00;102411.47;5014936;28;45657;-75
2023/10/08 07:17:08;;;;;;;;;28.50;27.00;;;;;13.30;100.00;102451.53;5019404;28;45266;-76
2023/10/08 07:19:37;;;;;;;;;31.50;28.00;;;;;13.61;100.00;102496.59;5012712;28;46047;-76
2023/10/08 07:22:28;;;;;;;;;31.25;28.00;;;;;13.80;100.00;102492.41;5020630;28;47445;-76
2023/10/08 07:24:53;;;;;;;;;28.00;25.00;;;;;13.75;100.00;102479.25;5022240;28;45564;-76
2023/10/08 07:27:29;;;;;;;;;29.50;27.00;;;;;13.89;100.00;102494.75;5020884;28;45486;-76
2023/10/08 07:29:55;;;;;;;;;28.25;25.75;;;;;14.02;100.00;102499.59;5015413;28;45303;-76
2023/10/08 07:32:21;;;;;;;;;31.75;30.50;;;;;14.09;100.00;102495.81;5020132;28;45669;-76
2023/10/08 07:37:51;;;;;;;;;30.00;29.00;;;;;13.93;100.00;102440.53;5020682;28;45542;-76
2023/10/08 07:40:20;;;;;;;;;33.50;30.25;;;;;14.18;100.00;102473.31;5022927;28;45541;-76
2023/10/08 07:42:51;;;;;;;;;38.75;32.25;;;;;14.02;100.00;102443.72;5017108;28;47292;-76
2023/10/08 07:45:18;;;;;;;;;31.00;29.25;;;;;14.10;100.00;102446.13;5015259;28;45439;-76
2023/10/08 07:47:46;;;;;;;;;37.50;32.50;;;;;14.18;100.00;102428.06;5013648;28;45506;-77
2023/10/08 07:50:12;;;;;;;;;37.00;32.25;;;;;14.47;100.00;102477.63;5012986;28;45680;-76
2023/10/08 07:52:38;;;;;;;;;38.00;31.75;;;;;14.71;100.00;102490.03;5023331;28;45479;-76
2023/10/08 07:55:07;;;;;;;;;34.75;32.50;;;;;14.80;100.00;102503.00;5020924;28;45516;-76
2023/10/08 07:57:33;;;;;;;;;37.50;32.00;;;;;14.89;100.00;102504.44;5017479;28;45506;-76
2023/10/08 08:00:18;;;;;;;;;38.00;34.00;;;;;14.97;100.00;102505.03;5018395;28;45507;-76
2023/10/08 08:02:44;;;;;;;;;37.50;33.00;;;;;14.92;100.00;102477.72;5012358;28;47834;-76
2023/10/08 08:05:09;;;;;;;;;38.50;33.25;;;;;15.08;100.00;102502.84;5017186;28;45449;-76
2023/10/08 08:07:34;;;;;;;;;44.75;35.75;;;;;15.20;100.00;102501.47;5016645;28;45536;-76
2023/10/08 08:10:00;;;;;;;;;41.25;35.75;;;;;15.14;100.00;102483.94;5020783;28;46159;-76
2023/10/08 08:12:32;;;;;;;;;43.25;36.00;;;;;15.27;100.00;102485.19;5019308;28;46864;-76
2023/10/08 08:15:28;;;;;;;;;40.50;36.25;;;;;15.25;100.00;102464.84;5014964;28;45273;-76
2023/10/08 08:18:16;;;;;;;;;;;;;;;;;;;;;
2023/10/08 08:20:43;;;;;;;;;42.00;35.00;;;;;15.38;100.00;102458.94;5024417;28;71561;-76
2023/10/08 08:23:11;;;;;;;;;42.50;33.75;;;;;15.80;100.00;102525.72;5016386;28;47591;-76
2023/10/08 08:28:28;;;;;;;;;40.00;36.00;;;;;16.05;100.00;102501.50;5033244;28;45522;-76
2023/10/08 08:31:04;;;;;;;;;39.75;35.00;;;;;15.84;100.00;102451.72;5025799;28;45710;-76
2023/10/08 08:33:52;;;;;;;;;43.25;32.50;;;;;16.07;100.00;102473.81;5029262;28;45391;-76
2023/10/08 08:36:16;;;;;;;;;40.50;34.25;;;;;16.14;100.00;102458.41;5014682;28;45399;-76
2023/10/08 08:38:44;;;;;;;;;37.50;33.00;;;;;16.34;100.00;102490.44;5019790;28;45207;-76
2023/10/08 08:41:12;;;;;;;;;45.00;36.75;;;;;16.60;100.00;102498.19;5003582;28;45379;-76
2023/10/08 08:43:44;;;;;;;;;46.00;38.00;;;;;16.85;100.00;102535.31;5018927;28;47176;-77
2023/10/08 08:46:12;;;;;;;;;37.00;32.50;;;;;16.40;100.00;102417.19;5013928;28;45452;-76
2023/10/08 08:48:41;;;;;;;;;38.00;33.75;;;;;16.90;100.00;102492.38;5015625;28;45529;-76
2023/10/08 08:51:07;;;;;;;;;38.75;32.50;;;;;16.94;100.00;102462.75;5004016;28;45289;-76
2023/10/08 08:53:36;;;;;;;;;37.00;32.50;;;;;17.31;100.00;102506.47;5012424;28;45562;-76
2023/10/08 08:56:05;;;;;;;;;41.50;34.50;;;;;16.80;100.00;102422.44;5016472;28;45431;-76
2023/10/08 08:58:33;;;;;;;;;37.50;32.50;;;;;17.38;100.00;102489.16;5012233;28;45478;-76
2023/10/08 09:01:00;;;;;;;;;35.50;32.50;;;;;17.47;100.00;102480.69;5027712;28;45349;-76
2023/10/08 09:03:32;;;;;;;;;38.50;33.75;;;;;17.47;100.00;102462.81;5008519;28;46530;-77
2023/10/08 09:05:58;;;;;;;;;36.00;32.00;;;;;17.52;100.00;102442.06;5026411;28;45268;-76
2023/10/08 09:08:28;;;;;;;;;42.75;35.50;;;;;17.59;100.00;102446.22;5015661;28;45542;-76
2023/10/08 09:11:00;;;;;;;;;42.50;35.00;;;;;17.83;100.00;102461.97;5021245;28;45668;-76
2023/10/08 09:13:27;;;;;;;;;34.00;31.50;;;;;17.68;100.00;102435.03;5021626;28;46715;-76
2023/10/08 09:16:04;;;;;;;;;35.00;32.25;;;;;18.05;100.00;102481.34;5011942;28;45384;-76
2023/10/08 09:18:32;;;;;;;;;39.50;35.50;;;;;17.81;100.00;102405.81;5012048;28;45439;-76
2023/10/08 09:21:10;;;;;;;;;43.00;36.25;;;;;18.29;100.00;102472.00;5023314;28;45593;-74
2023/10/08 09:23:43;;;;;;;;;38.25;34.75;;;;;18.26;100.00;102453.41;5019405;28;45301;-76
2023/10/08 09:26:09;;;;;;;;;36.33;33.00;;;;;18.34;100.00;102432.47;5016882;28;45368;-76
2023/10/08 09:28:38;;;;;;;;;44.67;37.00;;;;;18.42;100.00;102426.69;5025620;28;45611;-76
2023/10/08 09:31:12;;;;;;;;;39.33;34.33;;;;;18.56;100.00;102441.09;5009953;28;45686;-76
2023/10/08 09:33:39;;;;;;;;;36.67;32.67;;;;;19.03;100.00;102493.91;5021851;28;45591;-76
2023/10/08 09:36:10;;;;;;;;;29.00;25.33;;;;;18.74;100.00;102431.19;5015404;28;45455;-76
2023/10/08 09:38:48;;;;;;;;;28.33;25.33;;;;;18.76;100.00;102417.69;5020887;28;45435;-76
2023/10/08 09:41:14;;;;;;;;;29.33;28.33;;;;;18.83;100.00;102411.03;5025566;28;45379;-76
2023/10/08 09:43:43;;;;;;;;;26.33;26.33;;;;;19.12;99.05;102440.63;5015742;28;46320;-77
2023/10/08 09:46:15;;;;;;;;;27.67;23.33;;;;;19.08;100.00;102422.97;5020909;28;45346;-76
2023/10/08 09:48:57;;;;;;;;;28.67;25.67;;;;;19.12;100.00;102400.38;5015058;28;45557;-76
2023/10/08 09:51:25;;;;;;;;;25.33;24.00;;;;;19.13;99.43;102383.34;5016442;28;45876;-76
2023/10/08 09:54:10;;;;;;;;;33.33;28.00;;;;;19.34;95.60;102402.69;5017895;28;46941;-75
2023/10/08 09:56:36;;;;;;;;;30.67;28.33;;;;;19.85;94.98;102463.22;5019520;28;45619;-75
2023/10/08 09:59:02;;;;;;;;;24.33;22.00;;;;;19.98;95.15;102469.59;5014042;28;45595;-75
2023/10/08 10:01:28;;;;;;;;;24.33;22.00;;;;;20.11;94.85;102464.34;5008919;28;45538;-78
2023/10/08 10:03:54;;;;;;;;;23.33;21.00;;;;;20.20;87.83;102466.47;5014578;28;46383;-76
2023/10/08 10:06:20;;;;;;;;;24.00;24.00;;;;;20.30;84.70;102461.41;5018762;28;45306;-76
2023/10/08 10:08:47;;;;;;;;;24.67;21.67;;;;;20.34;86.85;102455.78;5014324;28;45230;-76
2023/10/08 10:11:13;;;;;;;;;18.00;18.00;;;;;20.34;89.52;102447.69;5003566;28;45596;-76
2023/10/08 10:13:44;;;;;;;;;20.33;16.33;;;;;20.58;87.84;102478.41;5032698;28;45470;-75
2023/10/08 10:16:13;;;;;;;;;17.67;15.00;;;;;20.61;86.83;102461.25;5020953;28;45282;-76
2023/10/08 10:18:38;;;;;;;;;15.67;14.67;;;;;20.66;81.22;102472.56;5007556;28;45593;-75
2023/10/08 10:21:13;;;;;;;;;11.33;11.33;;;;;20.85;82.85;102466.88;5030654;28;45607;-74
2023/10/08 10:23:40;;;;;;;;;14.00;10.67;;;;;20.90;88.00;102459.41;5011104;28;46926;-74
2023/10/08 10:26:22;;;;;;;;;12.33;12.33;;;;;20.92;82.67;102449.41;5011728;28;45494;-76
2023/10/08 10:29:10;;;;;;;;;15.00;10.33;;;;;21.10;83.32;102464.41;5000469;28;45305;-75
2023/10/08 10:31:38;;;;;;;;;15.00;12.33;;;;;21.21;84.82;102461.84;5025066;28;45745;-75
2023/10/08 10:34:09;;;;;;;;;14.33;10.67;;;;;21.30;85.61;102469.34;5011016;28;45692;-75
2023/10/08 10:36:36;;;;;;;;;10.33;9.00;;;;;21.35;84.62;102461.81;5020664;28;45592;-76
2023/10/08 10:39:15;;;;;;;;;10.67;8.33;;;;;21.31;83.35;102438.75;5017542;28;46278;-75
2023/10/08 10:41:48;;;;;;;;;10.00;8.00;;;;;21.33;80.42;102444.06;5021774;28;45409;-77
2023/10/08 10:44:16;;;;;;;;;10.67;7.33;;;;;21.56;73.61;102465.75;5001043;28;45744;-75
2023/10/08 10:46:43;;;;;;;;;5.67;5.67;;;;;21.67;79.81;102463.22;5024269;28;45660;-75
2023/10/08 10:49:21;;;;;;;;;14.00;9.33;;;;;21.73;77.52;102462.81;5001262;28;45586;-76
2023/10/08 10:51:57;;;;;;;;;8.67;8.67;;;;;21.81;73.62;102467.69;5020624;28;45490;-75
2023/10/08 10:54:23;;;;;;;;;7.67;6.00;;;;;21.80;75.01;102452.47;5015176;28;47165;-76
2023/10/08 10:57:03;;;;;;;;;7.33;6.00;;;;;21.95;73.05;102461.41;5021627;28;45472;-75
2023/10/08 10:59:39;;;;;;;;;8.33;7.00;;;;;21.89;73.48;102434.84;5008644;28;45563;-75
2023/10/08 11:02:08;;;;;;;;;5.00;5.00;;;;;21.96;71.04;102439.72;5022918;28;45460;-78
2023/10/08 11:04:48;;;;;;;;;6.67;6.00;;;;;21.74;74.28;102399.03;5020959;28;46326;-78
2023/10/08 11:07:17;;;;;;;;;8.00;7.67;;;;;22.18;70.96;102444.50;5018344;28;45479;-78
2023/10/08 11:09:44;;;;;;;;;7.00;6.00;;;;;22.11;71.36;102435.09;5009353;28;45247;-76
2023/10/08 11:12:12;;;;;;;;;7.67;7.00;;;;;22.28;72.50;102453.66;5013688;28;45345;-76
2023/10/08 11:14:41;;;;;;;;;7.33;7.33;;;;;22.33;74.67;102454.19;5009596;28;46309;-76
2023/10/08 11:17:14;;;;;;;;;6.00;6.00;;;;;22.28;72.37;102434.81;5009017;28;45322;-78
2023/10/08 11:19:42;;;;;;;;;6.00;6.00;;;;;22.23;72.47;102426.16;5004911;28;45460;-76
2023/10/08 11:22:15;;;;;;;;;5.67;4.00;;;;;22.35;71.47;102444.16;5013780;28;45717;-76
2023/10/08 11:24:42;;;;;;;;;7.33;6.33;;;;;22.29;66.71;102423.91;5012187;28;48193;-76
2023/10/08 11:27:39;;;;;;;;;6.00;5.00;;;;;22.09;71.53;102385.81;5012546;28;45513;-78
2023/10/08 11:30:10;;;;;;;;;7.00;7.00;;;;;22.23;64.12;102408.16;5016449;28;45285;-78
2023/10/08 11:32:37;;;;;;;;;8.00;7.33;;;;;22.52;67.64;102435.75;5010267;28;45701;-78
2023/10/08 11:35:15;;;;;;;;;6.33;5.33;;;;;22.37;69.09;102398.22;5010846;28;46236;-78
2023/10/08 11:37:49;;;;;;;;;6.00;6.00;;;;;22.31;69.20;102376.13;5009837;28;45396;-77
2023/10/08 11:40:28;;;;;;;;;7.67;6.00;;;;;22.73;68.96;102444.16;5008277;28;45568;-78
2023/10/08 11:42:56;;;;;;;;;5.33;5.00;;;;;22.77;68.77;102441.13;5015220;28;45703;-78
2023/10/08 11:45:37;;;;;;;;;8.67;8.33;;;;;22.54;66.68;102404.16;5013898;28;45463;-79
2023/10/08 11:48:11;;;;;;;;;10.67;7.00;;;;;22.70;65.93;102409.31;5008155;28;45407;-77
2023/10/08 11:50:38;;;;;;;;;7.67;6.33;;;;;22.94;68.19;102421.00;5008234;28;45888;-77
2023/10/08 11:53:08;;;;;;;;;8.00;6.67;;;;;22.82;63.30;102386.84;5024863;28;45608;-77
2023/10/08 11:55:35;;;;;;;;;8.67;7.00;;;;;23.03;64.75;102409.56;5009669;28;45439;-77
2023/10/08 11:58:10;;;;;;;;;6.00;5.00;;;;;23.14;65.10;102414.13;5007703;28;45466;-76
2023/10/08 12:00:45;;;;;;;;;9.00;5.67;;;;;22.96;63.95;102362.41;5021537;28;45673;-77
2023/10/08 12:03:23;;;;;;;;;6.00;5.00;;;;;23.00;67.71;102352.25;5007149;28;45594;-76
2023/10/08 12:06:02;;;;;;;;;5.67;5.67;;;;;22.88;64.98;102318.91;5001772;28;46245;-76
2023/10/08 12:08:53;;;;;;;;;5.67;5.00;;;;;23.31;65.54;102376.81;5011119;28;45879;-76
2023/10/08 12:11:19;;;;;;;;;8.00;5.67;;;;;23.09;64.00;102332.66;5002911;28;45381;-77
2023/10/08 12:13:53;;;;;;;;;5.67;5.67;;;;;23.50;64.96;102405.13;5018908;28;45427;-77
2023/10/08 12:16:20;;;;;;;;;5.00;5.00;;;;;23.35;64.30;102362.09;5013466;28;47177;-77
2023/10/08 12:18:48;;;;;;;;;5.33;5.33;;;;;23.38;63.18;102352.03;5016005;28;45830;-77
2023/10/08 12:21:20;;;;;;;;;8.00;6.33;;;;;23.32;62.28;102340.75;5013209;28;45845;-76
2023/10/08 12:23:54;;;;;;;;;7.33;5.67;;;;;23.22;65.84;102296.50;5006569;28;45423;-76
2023/10/08 12:26:28;;;;;;;;;5.00;5.00;;;;;23.29;62.61;102297.78;5018193;28;46298;-76
2023/10/08 12:29:40;;;;;;;;;6.00;6.00;;;;;23.43;62.83;102325.59;5019763;28;45455;-77
2023/10/08 12:31:59;;;;;;;;;7.33;5.67;;;;;23.32;63.93;102286.72;5007374;28;45515;-77